Time;durP1;ratioP1;P1;durP2;ratioP2;P2;SDS_P1;SDS_P2;PMS_P1;PMS_P2;Temp;Humidity;BMP_temperature;BMP_pressure;BME280_temperature;BME280_humidity;BME280_pressure;Samples;Min_cycle;Max_cycle;Signal;HPM_P1;HPM_P2
2023/10/19 00:00:20;;;;;;;27.92;13.20;;;8.60;99.90;;;;;;5050590;28;20048;-58
2023/10/19 00:02:51;;;;;;;25.80;13.90;;;8.50;99.90;;;;;;5049874;28;20040;-57
2023/10/19 00:05:17;;;;;;;29.33;13.57;;;8.70;99.90;;;;;;5050110;28;20388;-58
2023/10/19 00:07:44;;;;;;;24.98;13.55;;;8.70;99.90;;;;;;5050763;28;20037;-56
2023/10/19 00:10:14;;;;;;;31.88;15.40;;;8.60;99.90;;;;;;5050747;28;20138;-56
2023/10/19 00:12:40;;;;;;;26.88;14.05;;;8.50;99.90;;;;;;5054183;28;20049;-57
2023/10/19 00:15:06;;;;;;;29.90;15.90;;;8.50;99.90;;;;;;5036026;28;20064;-57
2023/10/19 00:17:32;;;;;;;26.35;14.60;;;8.50;99.90;;;;;;5054243;28;20488;-57
2023/10/19 00:22:42;;;;;;;33.30;15.70;;;8.80;99.90;;;;;;5054016;28;20147;-57
2023/10/19 00:25:09;;;;;;;30.50;15.60;;;8.50;99.90;;;;;;5019716;28;20385;-56
2023/10/19 00:27:34;;;;;;;37.05;17.30;;;8.50;99.90;;;;;;5035739;28;20063;-55
2023/10/19 00:30:06;;;;;;;33.45;16.08;;;8.50;99.90;;;;;;5054241;28;20044;-58
2023/10/19 00:32:32;;;;;;;35.10;16.65;;;8.80;99.90;;;;;;5036523;28;20503;-57
2023/10/19 00:35:04;;;;;;;29.65;16.00;;;8.70;99.90;;;;;;5054173;28;20036;-56
2023/10/19 00:37:32;;;;;;;37.13;17.98;;;8.70;99.90;;;;;;5054006;28;20041;-56
2023/10/19 00:40:14;;;;;;;37.30;19.52;;;8.50;99.90;;;;;;5053821;28;20132;-57
2023/10/19 00:42:45;;;;;;;35.35;17.48;;;8.60;99.90;;;;;;5053990;28;20090;-57
2023/10/19 00:45:13;;;;;;;34.55;16.90;;;8.70;99.90;;;;;;5019608;28;20040;-57
2023/10/19 00:47:42;;;;;;;41.33;17.95;;;8.80;99.90;;;;;;5053807;28;20108;-57
2023/10/19 00:50:16;;;;;;;37.78;17.15;;;8.50;99.90;;;;;;5053454;28;20040;-58
2023/10/19 00:52:49;;;;;;;45.83;32.28;;;8.50;99.90;;;;;;5053923;28;20179;-58
2023/10/19 00:55:18;;;;;;;35.75;18.30;;;8.80;99.90;;;;;;5053442;28;20471;-59
2023/10/19 00:57:48;;;;;;;50.67;34.10;;;8.60;99.90;;;;;;5052638;28;20041;-59
2023/10/19 01:00:34;;;;;;;36.97;17.45;;;8.90;99.90;;;;;;5053354;28;20047;-59
2023/10/19 01:03:00;;;;;;;37.67;16.92;;;8.90;99.90;;;;;;5053811;28;20393;-59
2023/10/19 01:05:35;;;;;;;45.10;33.40;;;8.60;99.90;;;;;;5053560;28;20380;-60
2023/10/19 01:08:05;;;;;;;51.97;33.33;;;8.90;99.90;;;;;;5053687;28;20069;-59
2023/10/19 01:10:31;;;;;;;33.30;15.93;;;8.80;99.90;;;;;;5053733;28;20128;-59
2023/10/19 01:12:59;;;;;;;33.72;16.17;;;8.90;99.90;;;;;;5053586;28;20099;-59
2023/10/19 01:17:57;;;;;;;31.58;14.85;;;8.60;99.90;;;;;;5053107;28;20126;-59
2023/10/19 01:23:35;;;;;;;32.55;15.55;;;8.70;99.90;;;;;;5052696;28;20072;-59
2023/10/19 01:29:13;;;;;;;37.10;18.05;;;8.60;99.90;;;;;;5053423;28;20041;-58
2023/10/19 01:33:57;;;;;;;36.28;17.38;;;8.80;99.90;;;;;;5051263;28;20096;-59
2023/10/19 01:38:53;;;;;;;35.58;18.35;;;8.90;99.90;;;;;;5052823;28;20045;-59
2023/10/19 01:41:20;;;;;;;30.33;14.45;;;8.70;99.90;;;;;;5052535;28;20049;-59
2023/10/19 01:43:48;;;;;;;45.22;31.60;;;9.20;99.90;;;;;;5052684;28;20041;-59
2023/10/19 01:46:23;;;;;;;35.28;16.70;;;9.10;99.90;;;;;;5051641;28;20084;-59
2023/10/19 01:48:54;;;;;;;34.50;16.88;;;8.90;99.90;;;;;;5052828;28;20044;-58
2023/10/19 01:51:20;;;;;;;33.78;15.75;;;9.00;99.90;;;;;;5051469;28;20090;-59
2023/10/19 01:53:47;;;;;;;34.88;15.73;;;8.90;99.90;;;;;;5034626;28;20044;-58
2023/10/19 01:56:15;;;;;;;36.38;16.15;;;9.10;99.90;;;;;;5052378;28;20538;-59
2023/10/19 01:58:46;;;;;;;37.90;16.70;;;9.30;99.90;;;;;;5052628;28;20037;-59
2023/10/19 02:03:42;;;;;;;36.15;18.40;;;9.20;99.90;;;;;;5052676;28;20041;-59
2023/10/19 02:06:34;;;;;;;36.42;17.02;;;8.90;99.90;;;;;;5052211;28;20107;-59
2023/10/19 02:11:52;;;;;;;34.17;16.08;;;9.20;99.90;;;;;;5052413;28;20049;-60
2023/10/19 02:14:19;;;;;;;36.30;16.33;;;9.00;99.90;;;;;;5052548;28;20044;-59
2023/10/19 02:16:53;;;;;;;43.63;33.45;;;9.40;99.90;;;;;;5052390;28;20062;-59
2023/10/19 02:19:20;;;;;;;47.40;20.95;;;8.90;99.90;;;;;;5052498;28;22005;-58
2023/10/19 02:21:48;;;;;;;37.88;18.40;;;9.00;99.90;;;;;;5051430;28;20040;-58
2023/10/19 02:24:15;;;;;;;39.50;18.88;;;9.30;99.90;;;;;;5051259;28;20500;-59
2023/10/19 02:26:42;;;;;;;37.20;17.92;;;9.00;99.90;;;;;;5051550;28;20033;-58
2023/10/19 02:29:09;;;;;;;41.50;18.65;;;9.40;99.90;;;;;;5052279;28;20414;-59
2023/10/19 02:31:37;;;;;;;40.95;18.58;;;9.20;99.90;;;;;;5052032;28;20048;-59
2023/10/19 02:34:04;;;;;;;40.95;19.30;;;9.00;99.90;;;;;;5051918;28;20081;-59
2023/10/19 02:36:32;;;;;;;38.35;18.00;;;9.00;99.90;;;;;;5052023;28;20076;-59
2023/10/19 02:38:58;;;;;;;43.78;31.88;;;9.00;99.90;;;;;;5051529;28;20562;-59
2023/10/19 02:41:28;;;;;;;42.05;18.95;;;9.10;99.90;;;;;;5050549;28;20044;-58
2023/10/19 02:47:08;;;;;;;45.88;33.40;;;9.20;99.90;;;;;;4950877;29;20057;-58
2023/10/19 02:49:39;;;;;;;32.78;15.65;;;9.10;99.90;;;;;;4951422;29;20043;-58
2023/10/19 02:52:05;;;;;;;34.67;14.90;;;9.50;99.90;;;;;;5008223;28;20053;-59
2023/10/19 02:54:34;;;;;;;44.40;31.75;;;9.10;99.90;;;;;;5016949;28;20037;-59
2023/10/19 02:57:00;;;;;;;43.22;17.58;;;9.20;99.90;;;;;;5033324;28;20439;-59
2023/10/19 02:59:32;;;;;;;36.95;17.17;;;9.30;99.90;;;;;;5051446;28;20028;-58
2023/10/19 03:02:07;;;;;;;38.90;18.35;;;9.20;99.90;;;;;;5015818;28;20037;-58
2023/10/19 03:04:35;;;;;;;44.40;19.13;;;9.60;99.90;;;;;;5051624;28;20040;-59
2023/10/19 03:07:03;;;;;;;43.35;19.98;;;9.60;99.90;;;;;;5050135;28;20354;-58
2023/10/19 03:09:29;;;;;;;47.83;20.42;;;9.70;99.90;;;;;;5051191;28;20118;-58
2023/10/19 03:11:59;;;;;;;53.45;21.58;;;9.70;99.90;;;;;;5050829;28;20067;-58
2023/10/19 03:14:26;;;;;;;55.85;21.05;;;9.30;99.90;;;;;;5051125;28;20037;-58
2023/10/19 03:16:54;;;;;;;59.63;23.75;;;9.40;99.90;;;;;;5051253;28;20071;-58
2023/10/19 03:19:20;;;;;;;52.88;21.30;;;9.30;99.90;;;;;;5051221;28;20068;-58
2023/10/19 03:21:49;;;;;;;53.50;24.17;;;9.50;99.90;;;;;;5051184;28;20069;-58
2023/10/19 03:26:59;;;;;;;61.85;23.08;;;9.80;99.90;;;;;;5050946;28;20987;-59
2023/10/19 03:29:31;;;;;;;53.22;22.75;;;9.40;99.90;;;;;;5050600;28;20484;-58
2023/10/19 03:32:01;;;;;;;54.72;23.63;;;9.80;99.90;;;;;;5050234;28;20170;-58
2023/10/19 03:34:27;;;;;;;48.00;22.30;;;9.80;99.90;;;;;;5049840;28;20377;-59
2023/10/19 03:36:54;;;;;;;57.03;24.23;;;9.60;99.90;;;;;;5050811;28;20124;-59
2023/10/19 03:39:21;;;;;;;63.05;41.42;;;9.50;99.90;;;;;;5049978;28;20064;-59
2023/10/19 03:41:46;;;;;;;54.45;23.30;;;9.80;99.90;;;;;;5050470;28;20053;-58
2023/10/19 03:44:18;;;;;;;63.70;23.33;;;9.70;99.90;;;;;;5049879;28;20535;-59
2023/10/19 03:46:57;;;;;;;75.10;46.25;;;9.50;99.90;;;;;;5049787;28;20048;-59
2023/10/19 03:49:37;;;;;;;55.08;22.63;;;9.70;99.90;;;;;;5050846;28;20068;-59
2023/10/19 03:54:41;;;;;;;59.88;23.40;;;9.70;99.90;;;;;;5050648;28;20159;-59
2023/10/19 03:57:29;;;;;;;61.17;23.40;;;9.70;99.90;;;;;;5050254;28;20133;-58
2023/10/19 03:59:57;;;;;;;60.83;23.60;;;9.70;99.90;;;;;;5049943;28;20053;-58
2023/10/19 04:02:29;;;;;;;78.70;25.45;;;10.10;99.90;;;;;;5016454;28;20498;-58
2023/10/19 04:04:57;;;;;;;64.07;23.50;;;9.90;99.90;;;;;;5049046;28;20041;-59
2023/10/19 04:07:25;;;;;;;60.63;23.52;;;10.10;99.90;;;;;;5050164;28;20041;-59
2023/10/19 04:12:35;;;;;;;49.25;21.13;;;9.90;99.90;;;;;;5050269;28;20084;-59
2023/10/19 04:17:42;;;;;;;62.75;24.55;;;9.80;99.90;;;;;;5050349;28;20411;-58
2023/10/19 04:22:43;;;;;;;60.20;24.63;;;10.30;99.90;;;;;;5049760;28;20455;-59
2023/10/19 04:25:29;;;;;;;61.35;24.23;;;10.20;99.90;;;;;;5048934;28;20049;-58
2023/10/19 04:27:57;;;;;;;60.58;25.13;;;10.20;99.90;;;;;;5049304;28;20041;-58
2023/10/19 04:30:22;;;;;;;64.38;25.25;;;10.30;99.90;;;;;;5049583;28;20060;-59
2023/10/19 04:32:50;;;;;;;66.30;25.35;;;10.20;99.90;;;;;;5049524;28;20037;-59
2023/10/19 04:35:22;;;;;;;65.65;25.15;;;10.10;99.90;;;;;;5032062;28;20045;-59
2023/10/19 04:37:52;;;;;;;83.47;27.23;;;10.10;99.90;;;;;;5050240;28;20040;-64
2023/10/19 04:40:19;;;;;;;67.50;25.88;;;10.00;99.90;;;;;;5050263;28;20077;-59
2023/10/19 04:42:46;;;;;;;68.55;25.77;;;9.90;99.90;;;;;;5050456;28;20392;-58
2023/10/19 04:45:12;;;;;;;70.55;26.25;;;10.30;99.90;;;;;;5050341;28;20036;-58
2023/10/19 04:47:39;;;;;;;71.50;28.40;;;10.30;99.90;;;;;;5050033;28;20033;-59
2023/10/19 04:50:06;;;;;;;74.07;28.20;;;10.30;99.90;;;;;;5049983;28;20041;-58
2023/10/19 04:52:32;;;;;;;77.03;47.88;;;10.50;99.90;;;;;;5048998;28;20102;-58
2023/10/19 04:54:59;;;;;;;66.68;25.35;;;10.10;99.90;;;;;;5048626;28;20044;-58
2023/10/19 04:57:25;;;;;;;80.38;26.88;;;10.50;99.90;;;;;;5050149;28;20049;-58
2023/10/19 04:59:51;;;;;;;75.93;27.63;;;10.60;99.90;;;;;;5053870;28;20063;-58
2023/10/19 05:02:17;;;;;;;88.18;30.02;;;10.30;99.90;;;;;;5053971;28;20044;-58
2023/10/19 05:04:45;;;;;;;85.05;29.17;;;10.50;99.90;;;;;;5035597;28;20396;-59
2023/10/19 05:07:17;;;;;;;83.78;29.73;;;10.60;99.90;;;;;;5053509;28;20041;-59
2023/10/19 05:09:44;;;;;;;84.40;30.05;;;10.20;99.90;;;;;;5053470;28;20369;-58
2023/10/19 05:12:11;;;;;;;85.20;29.45;;;10.50;99.90;;;;;;5052714;28;20049;-59
2023/10/19 05:14:39;;;;;;;96.53;53.13;;;10.60;99.90;;;;;;5053232;28;20041;-59
2023/10/19 05:17:05;;;;;;;82.60;30.17;;;10.60;99.90;;;;;;5053249;28;20400;-58
2023/10/19 05:19:32;;;;;;;87.68;30.92;;;10.70;99.90;;;;;;5052784;28;20041;-59
2023/10/19 05:21:59;;;;;;;90.75;29.42;;;10.60;99.90;;;;;;5053503;28;20037;-59
2023/10/19 05:24:25;;;;;;;92.78;32.13;;;10.40;99.90;;;;;;5053260;28;20079;-59
2023/10/19 05:26:53;;;;;;;97.35;31.13;;;10.70;99.90;;;;;;5052604;28;20463;-59
2023/10/19 05:29:19;;;;;;;95.45;32.38;;;10.80;99.90;;;;;;5052161;28;20494;-59
2023/10/19 05:31:45;;;;;;;97.43;32.70;;;10.60;99.90;;;;;;5052588;28;20069;-58
2023/10/19 05:34:11;;;;;;;95.95;31.92;;;10.80;99.90;;;;;;5052428;28;20075;-59
2023/10/19 05:36:36;;;;;;;95.50;32.15;;;10.50;99.90;;;;;;5052024;28;20091;-60
2023/10/19 05:39:05;;;;;;;116.18;35.17;;;10.80;99.90;;;;;;5052697;28;20309;-59
2023/10/19 05:41:31;;;;;;;105.15;33.95;;;10.60;99.90;;;;;;5052460;28;20086;-59
2023/10/19 05:43:57;;;;;;;106.97;35.08;;;10.90;99.90;;;;;;5052776;28;20484;-58
2023/10/19 05:46:24;;;;;;;112.00;35.78;;;10.50;99.90;;;;;;5051683;28;20033;-58
2023/10/19 05:48:51;;;;;;;116.03;36.80;;;10.60;99.90;;;;;;5051795;28;20132;-59
2023/10/19 05:51:17;;;;;;;119.07;61.58;;;10.50;99.90;;;;;;5051560;28;20439;-59
2023/10/19 05:53:44;;;;;;;101.25;35.22;;;10.80;99.90;;;;;;5052372;28;20048;-59
2023/10/19 05:56:11;;;;;;;107.40;34.83;;;11.00;99.90;;;;;;5017126;28;20053;-59
2023/10/19 05:58:37;;;;;;;115.00;35.08;;;11.00;99.90;;;;;;5052205;28;20045;-59
2023/10/19 06:01:03;;;;;;;118.22;36.55;;;11.00;99.90;;;;;;5034930;28;20115;-59
2023/10/19 06:03:29;;;;;;;116.05;37.60;;;10.70;99.90;;;;;;5018016;28;20120;-58
2023/10/19 06:05:56;;;;;;;117.68;61.38;;;10.60;99.90;;;;;;5052844;28;20037;-58
2023/10/19 06:08:25;;;;;;;103.90;32.88;;;11.10;99.90;;;;;;5051908;28;20420;-59
2023/10/19 06:10:52;;;;;;;101.28;34.35;;;11.10;99.90;;;;;;5052521;28;20068;-58
2023/10/19 06:13:18;;;;;;;114.97;37.92;;;10.90;99.90;;;;;;5034272;28;20037;-59
2023/10/19 06:15:43;;;;;;;119.68;37.63;;;11.20;99.90;;;;;;5052009;28;20044;-59
2023/10/19 06:18:10;;;;;;;130.50;38.78;;;11.00;99.90;;;;;;5051753;28;20033;-59
2023/10/19 06:20:36;;;;;;;127.15;38.53;;;10.90;99.90;;;;;;5050997;28;20381;-59
2023/10/19 06:23:06;;;;;;;128.60;37.85;;;11.20;99.90;;;;;;5033601;28;20468;-59
2023/10/19 06:25:34;;;;;;;125.95;38.35;;;11.20;99.90;;;;;;5051456;28;20106;-59
2023/10/19 06:28:01;;;;;;;113.85;35.35;;;11.20;99.90;;;;;;5052039;28;20499;-59
2023/10/19 06:30:27;;;;;;;146.88;61.50;;;10.90;99.90;;;;;;5051556;28;20053;-59
2023/10/19 06:33:01;;;;;;;133.15;36.10;;;10.90;99.90;;;;;;5051235;28;20152;-59
2023/10/19 06:35:28;;;;;;;114.25;34.08;;;11.20;99.90;;;;;;5033843;28;20040;-59
2023/10/19 06:37:57;;;;;;;110.60;35.33;;;10.80;99.90;;;;;;5048204;28;20045;-59
2023/10/19 06:40:23;;;;;;;123.78;36.83;;;11.00;99.90;;;;;;5051348;28;20087;-61
2023/10/19 06:42:49;;;;;;;110.90;35.40;;;10.90;99.90;;;;;;5050090;28;20033;-60
2023/10/19 06:45:16;;;;;;;116.70;59.45;;;11.20;99.90;;;;;;5033261;28;20103;-60
2023/10/19 06:47:44;;;;;;;116.97;37.45;;;11.40;99.90;;;;;;5052086;28;20111;-59
2023/10/19 06:50:15;;;;;;;122.45;36.38;;;11.00;99.90;;;;;;5050537;28;20071;-59
2023/10/19 06:52:42;;;;;;;117.90;37.03;;;11.30;99.90;;;;;;5051083;28;20091;-59
2023/10/19 06:55:25;;;;;;;121.60;36.83;;;10.90;99.90;;;;;;5051569;28;20029;-60
2023/10/19 06:57:55;;;;;;;108.30;37.05;;;11.30;99.90;;;;;;5050017;28;20032;-59
2023/10/19 07:00:22;;;;;;;126.95;62.15;;;11.10;99.90;;;;;;5050923;28;20094;-59
2023/10/19 07:02:52;;;;;;;110.03;35.45;;;11.10;99.90;;;;;;5032507;28;20041;-59
2023/10/19 07:05:23;;;;;;;103.38;58.80;;;11.50;99.90;;;;;;5051409;28;20037;-60
2023/10/19 07:07:56;;;;;;;112.10;34.90;;;11.40;99.90;;;;;;5038160;28;20128;-59
2023/10/19 07:10:22;;;;;;;108.25;34.50;;;11.20;99.90;;;;;;5040512;28;20629;-60
2023/10/19 07:12:51;;;;;;;115.07;36.67;;;11.40;99.90;;;;;;5023348;28;20033;-59
2023/10/19 07:15:21;;;;;;;120.82;37.42;;;11.40;99.90;;;;;;5040587;28;20033;-60
2023/10/19 07:17:48;;;;;;;125.93;39.40;;;11.30;99.90;;;;;;5023234;28;20385;-60
2023/10/19 07:20:35;;;;;;;126.93;37.15;;;11.30;99.90;;;;;;5039147;28;20103;-60
2023/10/19 07:23:09;;;;;;;113.03;37.08;;;11.60;99.90;;;;;;5040825;28;20118;-60
2023/10/19 07:25:43;;;;;;;124.22;39.78;;;11.30;99.90;;;;;;5024000;28;20099;-60
2023/10/19 07:28:17;;;;;;;131.38;36.63;;;11.70;99.90;;;;;;5006372;28;20036;-59
2023/10/19 07:30:44;;;;;;;115.88;38.22;;;11.50;99.90;;;;;;5015604;28;20033;-60
2023/10/19 07:33:10;;;;;;;128.45;40.15;;;11.70;99.90;;;;;;5028654;28;20065;-59
2023/10/19 07:35:42;;;;;;;122.05;37.78;;;11.50;99.90;;;;;;5031552;28;20051;-59
2023/10/19 07:38:08;;;;;;;111.40;38.10;;;11.40;99.90;;;;;;5027295;28;20046;-59
2023/10/19 07:40:35;;;;;;;121.53;38.95;;;11.60;99.90;;;;;;5030670;28;20057;-60
2023/10/19 07:43:03;;;;;;;114.80;38.83;;;11.60;99.90;;;;;;5027255;28;20041;-60
2023/10/19 07:45:31;;;;;;;110.15;60.08;;;11.60;99.90;;;;;;5012477;28;20067;-59
2023/10/19 07:48:05;;;;;;;118.10;37.22;;;11.80;99.90;;;;;;5032762;28;20037;-60
2023/10/19 07:50:35;;;;;;;126.38;38.70;;;11.80;99.90;;;;;;5028312;28;20045;-60
2023/10/19 07:53:01;;;;;;;122.53;40.10;;;11.80;99.90;;;;;;5030902;28;20069;-62
2023/10/19 07:55:27;;;;;;;121.82;38.60;;;12.00;99.90;;;;;;5027766;28;21041;-62
2023/10/19 07:57:53;;;;;;;129.70;40.85;;;12.10;99.90;;;;;;5028558;28;20045;-62
2023/10/19 08:00:20;;;;;;;118.40;38.40;;;11.80;99.90;;;;;;5027757;28;20073;-62
2023/10/19 08:02:46;;;;;;;115.85;40.28;;;11.70;99.90;;;;;;5031617;28;20037;-61
2023/10/19 08:05:13;;;;;;;111.63;38.42;;;12.20;99.90;;;;;;5026636;28;20087;-61
2023/10/19 08:07:42;;;;;;;121.85;39.70;;;12.00;99.90;;;;;;5030163;28;20675;-59
2023/10/19 08:10:10;;;;;;;123.55;40.85;;;12.10;99.90;;;;;;5012478;28;20048;-61
2023/10/19 08:12:37;;;;;;;115.30;39.70;;;12.10;99.90;;;;;;5030158;28;20404;-59
2023/10/19 08:15:03;;;;;;;99.45;54.83;;;12.30;99.90;;;;;;5028896;28;20044;-60
2023/10/19 08:17:30;;;;;;;91.38;54.30;;;12.20;99.90;;;;;;5027371;28;20049;-62
2023/10/19 08:19:56;;;;;;;116.10;38.10;;;12.30;99.90;;;;;;5029616;28;20829;-60
2023/10/19 08:22:23;;;;;;;110.40;38.20;;;12.40;99.90;;;;;;5029135;28;20505;-60
2023/10/19 08:24:49;;;;;;;110.60;56.90;;;12.50;99.90;;;;;;5012292;28;20045;-62
2023/10/19 08:27:17;;;;;;;125.50;39.40;;;12.10;99.90;;;;;;5030275;28;20040;-61
2023/10/19 08:29:43;;;;;;;105.93;38.33;;;12.10;99.90;;;;;;5032575;28;20052;-60
2023/10/19 08:32:09;;;;;;;121.13;38.97;;;12.20;99.90;;;;;;5030011;28;20033;-59
2023/10/19 08:34:36;;;;;;;96.78;54.83;;;12.60;99.90;;;;;;5008209;28;20175;-60
2023/10/19 08:37:04;;;;;;;109.47;38.40;;;12.30;99.90;;;;;;5029840;28;20071;-62
2023/10/19 08:39:40;;;;;;;121.28;40.05;;;12.60;99.90;;;;;;5034973;28;20072;-60
2023/10/19 08:42:06;;;;;;;102.07;53.90;;;12.70;99.90;;;;;;5034444;28;20506;-61
2023/10/19 08:44:32;;;;;;;113.35;37.90;;;12.40;99.90;;;;;;5035831;28;20028;-60
2023/10/19 08:46:59;;;;;;;90.75;51.10;;;12.40;99.90;;;;;;5018196;28;20041;-62
2023/10/19 08:49:26;;;;;;;113.15;36.35;;;12.60;99.90;;;;;;5032712;28;20120;-60
2023/10/19 08:51:54;;;;;;;102.05;37.08;;;12.60;99.90;;;;;;5031053;28;20107;-59
2023/10/19 08:54:20;;;;;;;102.05;37.60;;;12.70;99.90;;;;;;5029627;28;20048;-62
2023/10/19 08:56:47;;;;;;;95.70;37.42;;;12.70;99.90;;;;;;5014438;28;20044;-61
2023/10/19 08:59:17;;;;;;;104.57;39.20;;;12.80;99.90;;;;;;5033769;28;20436;-59
2023/10/19 09:01:43;;;;;;;102.50;37.92;;;13.10;99.90;;;;;;5034354;28;20033;-62
2023/10/19 09:04:10;;;;;;;89.53;48.78;;;13.30;99.90;;;;;;5033474;28;20036;-58
2023/10/19 09:06:43;;;;;;;94.38;36.20;;;12.90;99.90;;;;;;5033513;28;20047;-59
2023/10/19 09:09:25;;;;;;;86.60;34.80;;;13.10;99.90;;;;;;5034263;28;20045;-62
2023/10/19 09:11:52;;;;;;;88.10;35.05;;;12.90;99.90;;;;;;5031456;28;20562;-62
2023/10/19 09:14:43;;;;;;;89.00;34.15;;;13.40;99.90;;;;;;5031749;28;20033;-60
2023/10/19 09:17:10;;;;;;;82.97;33.30;;;13.40;99.90;;;;;;5031983;28;20091;-60
2023/10/19 09:19:40;;;;;;;85.68;33.90;;;13.10;99.90;;;;;;5030978;28;20486;-62
2023/10/19 09:22:18;;;;;;;76.72;31.85;;;13.50;99.90;;;;;;5034247;28;20473;-62
2023/10/19 09:24:49;;;;;;;77.72;32.20;;;13.30;99.90;;;;;;5030035;28;20037;-60
2023/10/19 09:27:19;;;;;;;87.85;33.85;;;13.50;99.90;;;;;;5029026;28;20099;-63
2023/10/19 09:29:45;;;;;;;94.53;38.22;;;13.60;99.90;;;;;;5034751;28;20051;-59
2023/10/19 09:32:13;;;;;;;96.47;35.22;;;13.60;99.90;;;;;;5047910;28;20052;-62
2023/10/19 09:34:43;;;;;;;79.18;45.25;;;13.20;99.90;;;;;;5051334;28;20052;-62
2023/10/19 09:37:11;;;;;;;93.20;33.67;;;13.20;99.90;;;;;;5033410;28;20040;-61
2023/10/19 09:39:37;;;;;;;85.68;32.75;;;13.70;99.90;;;;;;5050471;28;20132;-61
2023/10/19 09:42:06;;;;;;;80.13;33.28;;;13.60;99.90;;;;;;5051649;28;20096;-62
2023/10/19 09:44:43;;;;;;;81.70;33.75;;;13.30;99.90;;;;;;5050984;28;20044;-60
2023/10/19 09:47:19;;;;;;;85.95;33.75;;;13.30;99.90;;;;;;5052756;28;20109;-59
2023/10/19 09:49:45;;;;;;;69.05;42.28;;;13.50;99.90;;;;;;5052424;28;20046;-60
2023/10/19 09:52:13;;;;;;;72.20;43.47;;;13.90;99.90;;;;;;5052635;28;20284;-66
2023/10/19 09:55:04;;;;;;;65.68;42.20;;;13.50;99.90;;;;;;5033761;28;20076;-60
2023/10/19 09:57:44;;;;;;;67.32;42.08;;;14.00;99.90;;;;;;5030804;28;20135;-59
2023/10/19 10:00:14;;;;;;;79.93;33.50;;;13.70;99.90;;;;;;5051611;28;20048;-62
2023/10/19 10:02:42;;;;;;;75.20;31.73;;;13.70;99.90;;;;;;5052505;28;20056;-59
2023/10/19 10:05:42;;;;;;;77.68;34.15;;;14.30;99.90;;;;;;5051709;28;20072;-63
2023/10/19 10:08:17;;;;;;;55.92;37.45;;;13.90;99.90;;;;;;5051699;28;20033;-60
2023/10/19 10:10:47;;;;;;;65.20;40.47;;;14.50;99.90;;;;;;5047540;28;20503;-57
2023/10/19 10:13:30;;;;;;;70.53;33.20;;;14.00;99.90;;;;;;5051161;28;20384;-62
2023/10/19 10:15:57;;;;;;;58.30;40.30;;;14.40;99.90;;;;;;5049409;28;20045;-61
2023/10/19 10:18:29;;;;;;;61.22;34.20;;;14.30;99.90;;;;;;5027466;28;20095;-64
2023/10/19 10:21:34;;;;;;;64.63;32.22;;;14.30;99.90;;;;;;5038215;28;20115;-60
2023/10/19 10:24:02;;;;;;;63.42;31.95;;;15.00;99.90;;;;;;4970311;28;20035;-61
2023/10/19 10:26:35;;;;;;;47.28;33.60;;;14.50;99.90;;;;;;4949432;28;20057;-62
2023/10/19 10:29:23;;;;;;;56.67;30.58;;;14.60;99.90;;;;;;4998647;28;21405;-62
2023/10/19 10:31:50;;;;;;;45.63;32.17;;;14.50;99.90;;;;;;5035295;28;20052;-61
2023/10/19 10:34:37;;;;;;;57.08;28.38;;;14.70;99.90;;;;;;5037949;28;20041;-60
2023/10/19 10:37:11;;;;;;;49.63;26.42;;;15.30;99.90;;;;;;5039183;28;20473;-63
2023/10/19 10:39:38;;;;;;;37.35;26.52;;;14.90;99.90;;;;;;5037355;28;20132;-61
2023/10/19 10:42:06;;;;;;;33.28;24.60;;;15.30;99.90;;;;;;5038154;28;20099;-61
2023/10/19 10:44:39;;;;;;;33.65;24.88;;;15.30;99.90;;;;;;5039379;28;20040;-60
2023/10/19 10:47:09;;;;;;;34.28;24.98;;;15.40;99.90;;;;;;5039103;28;20067;-61
2023/10/19 10:50:06;;;;;;;36.17;27.17;;;15.40;99.90;;;;;;5038610;28;20048;-61
2023/10/19 10:52:34;;;;;;;38.75;27.92;;;14.90;99.90;;;;;;5022154;28;20057;-60
2023/10/19 10:55:11;;;;;;;41.03;29.00;;;15.10;99.90;;;;;;5037522;28;20040;-60
2023/10/19 10:57:38;;;;;;;35.80;26.42;;;15.50;99.90;;;;;;5035061;28;20037;-62
2023/10/19 11:00:18;;;;;;;36.00;26.63;;;15.10;99.90;;;;;;5026598;28;20057;-62
2023/10/19 11:02:45;;;;;;;35.67;26.77;;;15.40;99.90;;;;;;5044076;28;20132;-62
2023/10/19 11:05:13;;;;;;;25.52;18.30;;;15.30;99.90;;;;;;5047730;28;20047;-60
2023/10/19 11:07:39;;;;;;;20.70;13.50;;;15.50;99.90;;;;;;5048186;28;20033;-60
2023/10/19 11:10:05;;;;;;;23.02;13.77;;;15.50;99.90;;;;;;5031451;28;20037;-61
2023/10/19 11:12:32;;;;;;;21.65;11.60;;;16.40;99.90;;;;;;5031170;28;20060;-62
2023/10/19 11:14:59;;;;;;;23.35;10.77;;;16.60;99.90;;;;;;5049607;28;20040;-63
2023/10/19 11:17:30;;;;;;;18.45;10.30;;;16.50;99.90;;;;;;5049261;28;20043;-61
2023/10/19 11:19:57;;;;;;;18.50;9.95;;;16.50;99.90;;;;;;5048909;28;20056;-59
2023/10/19 11:22:26;;;;;;;13.18;8.30;;;17.10;99.90;;;;;;5051054;28;20035;-61
2023/10/19 11:24:56;;;;;;;18.95;7.80;;;16.70;99.90;;;;;;5050432;28;20076;-61
2023/10/19 11:27:28;;;;;;;11.02;7.05;;;17.20;99.90;;;;;;5050039;28;20064;-60
2023/10/19 11:29:59;;;;;;;12.75;7.68;;;17.80;99.90;;;;;;5050414;28;20059;-60
2023/10/19 11:32:25;;;;;;;12.57;7.05;;;17.90;99.90;;;;;;5050882;28;20071;-60
2023/10/19 11:34:53;;;;;;;10.27;6.20;;;17.50;99.90;;;;;;5050077;28;20045;-61
2023/10/19 11:37:19;;;;;;;12.40;6.80;;;17.50;99.90;;;;;;5050411;28;20033;-61
2023/10/19 11:39:45;;;;;;;10.80;6.63;;;17.70;99.90;;;;;;5049384;28;20045;-61
2023/10/19 11:42:12;;;;;;;13.50;7.53;;;17.80;99.90;;;;;;5050178;28;20041;-60
2023/10/19 11:44:38;;;;;;;13.18;7.22;;;17.20;99.90;;;;;;5049964;28;20147;-61
2023/10/19 11:47:03;;;;;;;14.93;7.55;;;17.60;99.90;;;;;;5049284;28;20506;-60
2023/10/19 11:49:29;;;;;;;11.80;7.05;;;17.50;99.90;;;;;;5049060;28;20063;-61
2023/10/19 11:51:55;;;;;;;13.65;7.70;;;17.30;99.90;;;;;;5050444;28;20459;-60
2023/10/19 11:54:21;;;;;;;16.73;8.10;;;17.00;99.90;;;;;;5032816;28;20028;-61
2023/10/19 11:56:48;;;;;;;13.48;6.85;;;17.60;99.90;;;;;;5049804;28;20095;-61
2023/10/19 11:59:15;;;;;;;11.85;6.63;;;17.70;99.90;;;;;;5049740;28;20048;-60
2023/10/19 12:01:42;;;;;;;14.20;7.50;;;17.10;99.90;;;;;;5032563;28;20239;-61
2023/10/19 12:04:09;;;;;;;12.38;6.40;;;17.50;99.90;;;;;;5050113;28;20048;-62
2023/10/19 12:06:35;;;;;;;12.25;7.78;;;17.30;99.90;;;;;;5049655;28;20044;-61
2023/10/19 12:09:14;;;;;;;17.70;11.82;;;16.90;99.90;;;;;;5052797;28;20106;-63
2023/10/19 12:11:44;;;;;;;18.17;13.88;;;16.90;99.90;;;;;;5054143;28;20041;-61
2023/10/19 12:14:14;;;;;;;19.15;14.18;;;16.70;99.90;;;;;;5035874;28;20166;-59
2023/10/19 12:16:40;;;;;;;18.02;14.80;;;17.30;99.90;;;;;;5053412;28;20045;-59
2023/10/19 12:19:07;;;;;;;16.83;14.52;;;17.20;99.90;;;;;;5052899;28;20117;-59
2023/10/19 12:21:37;;;;;;;21.40;15.20;;;17.10;99.90;;;;;;5054147;28;20136;-62
2023/10/19 12:24:04;;;;;;;22.10;15.55;;;16.60;99.90;;;;;;5036401;28;20466;-62
2023/10/19 12:26:30;;;;;;;19.15;14.50;;;16.80;99.90;;;;;;5035284;28;20044;-59
2023/10/19 12:28:56;;;;;;;18.55;14.35;;;16.40;99.90;;;;;;5052498;28;20044;-59
2023/10/19 12:31:23;;;;;;;22.20;14.68;;;16.90;99.90;;;;;;5034394;28;20577;-59
2023/10/19 12:33:49;;;;;;;23.88;17.25;;;16.80;99.90;;;;;;5053645;28;20044;-59
2023/10/19 12:36:32;;;;;;;25.92;21.42;;;16.80;99.90;;;;;;5052643;28;20040;-59
2023/10/19 12:38:58;;;;;;;25.75;19.38;;;16.80;99.90;;;;;;5052683;28;20057;-61
2023/10/19 12:41:24;;;;;;;27.65;22.20;;;16.10;99.90;;;;;;5033718;28;20098;-60
2023/10/19 12:44:08;;;;;;;26.75;23.20;;;16.60;99.90;;;;;;5035350;28;20041;-60
2023/10/19 12:46:36;;;;;;;29.13;23.33;;;16.50;99.90;;;;;;5035093;28;20041;-60
2023/10/19 12:49:08;;;;;;;30.13;23.73;;;16.30;99.90;;;;;;5052781;28;20065;-60
2023/10/19 12:51:34;;;;;;;31.92;20.38;;;16.30;99.90;;;;;;5053003;28;20404;-61
2023/10/19 12:54:03;;;;;;;27.67;20.95;;;16.10;99.90;;;;;;5053151;28;20029;-60
2023/10/19 12:56:29;;;;;;;30.92;21.63;;;16.20;99.90;;;;;;5052144;28;20076;-62
2023/10/19 12:58:55;;;;;;;31.83;24.77;;;16.10;99.90;;;;;;5053069;28;20517;-59
2023/10/19 13:01:21;;;;;;;28.75;24.95;;;15.90;99.90;;;;;;5036541;28;20120;-60
2023/10/19 13:03:49;;;;;;;30.85;21.40;;;16.30;99.90;;;;;;5053657;28;20029;-61
2023/10/19 13:06:15;;;;;;;28.40;23.70;;;16.50;99.90;;;;;;5053761;28;20484;-60
2023/10/19 13:08:40;;;;;;;27.90;23.38;;;16.10;99.90;;;;;;5035112;28;20072;-60
2023/10/19 13:11:10;;;;;;;26.73;21.40;;;16.50;99.90;;;;;;5052894;28;20064;-62
2023/10/19 13:13:39;;;;;;;29.83;20.10;;;16.50;99.90;;;;;;5036332;28;20045;-59
2023/10/19 13:16:09;;;;;;;27.90;21.58;;;17.30;99.90;;;;;;5041468;28;20182;-61